Barbeau, Michigan
Current Conditions -  °F | °C
As of 7:15 PM on Wednesday 28 Jan 2015 (Local Time) from KCIU Reporting Station
Overcast Overcast  
Wind Chill: 15°   Ceiling: 8000
Heat Index: 25°   Visibility: 10mi
Dew Point: 12°   Wind: 9mph
Humidity: 59%   Direction: 110°ESE
Pressure: 30.08"   Gusts: NA
Location:  46.29°N, 84.28°W
Report Text: KCIU 290015Z AUTO 11008KT 10SM BKN080 OVC110 M04/M11 A3008 RMK AO1
Loading
Personal Weather Stations






























Interactive Weather Map New forecast layout! Learn more

10-Day Weather Forecast

Advertisements
Track Severe Weather on mobile